createdAt,value
2019-02-07T00:01:03.976Z,99.90
2019-02-07T00:24:25.396Z,99.90
2019-02-07T00:26:54.642Z,99.90
2019-02-07T00:29:23.848Z,99.90
2019-02-07T00:31:53.071Z,99.90
2019-02-07T00:34:22.272Z,99.90
2019-02-07T00:36:51.536Z,99.90
2019-02-07T00:39:21.270Z,99.90
2019-02-07T00:41:50.476Z,99.90
2019-02-07T00:44:19.675Z,99.90
2019-02-07T00:46:48.891Z,99.90
2019-02-07T00:49:18.132Z,99.90
2019-02-07T00:51:47.344Z,99.90
2019-02-07T00:54:16.975Z,99.90
2019-02-07T00:56:46.189Z,99.90
2019-02-07T00:59:15.379Z,99.90
2019-02-07T01:01:44.583Z,99.90
2019-02-07T01:04:13.841Z,99.90
2019-02-07T01:06:43.067Z,99.90
2019-02-07T01:09:12.826Z,99.90
2019-02-07T01:11:42.027Z,99.90
2019-02-07T01:14:11.336Z,99.90
2019-02-07T01:16:40.556Z,99.90
2019-02-07T01:19:09.756Z,99.90
2019-02-07T01:21:38.984Z,99.90
2019-02-07T01:24:08.872Z,99.90
2019-02-07T01:26:38.090Z,99.90
2019-02-07T01:29:07.312Z,99.90
2019-02-07T01:31:36.512Z,99.90
2019-02-07T01:34:05.819Z,99.90
2019-02-07T01:36:35.011Z,99.90
2019-02-07T01:39:07.404Z,99.90
2019-02-07T01:41:36.663Z,99.90
2019-02-07T01:44:05.973Z,99.90
2019-02-07T01:46:35.195Z,99.90
2019-02-07T01:49:04.508Z,99.90
2019-02-07T01:51:33.747Z,99.90
2019-02-07T01:54:02.977Z,99.90
2019-02-07T01:56:32.169Z,99.90
2019-02-07T01:59:01.383Z,99.90
2019-02-07T02:01:30.747Z,99.90
2019-02-07T02:03:59.959Z,99.90
2019-02-07T02:06:29.168Z,99.90
2019-02-07T02:08:58.583Z,99.90
2019-02-07T02:11:27.780Z,99.90
2019-02-07T02:13:56.976Z,99.90
2019-02-07T02:16:26.185Z,99.90
2019-02-07T02:18:55.492Z,99.90
2019-02-07T02:21:24.783Z,99.90
2019-02-07T02:23:54.079Z,99.90
2019-02-07T02:26:23.264Z,99.90
2019-02-07T02:28:52.471Z,99.90
2019-02-07T02:31:21.732Z,99.90
2019-02-07T02:33:50.952Z,99.90
2019-02-07T02:36:20.137Z,99.90
2019-02-07T02:38:49.667Z,99.90
2019-02-07T02:41:18.868Z,99.90
2019-02-07T02:43:48.073Z,99.90
2019-02-07T02:46:17.293Z,99.90
2019-02-07T02:48:46.588Z,99.90
2019-02-07T02:51:15.783Z,99.90
2019-02-07T02:53:45.320Z,99.90
2019-02-07T02:56:14.525Z,99.90
2019-02-07T02:58:43.726Z,99.90
2019-02-07T03:01:32.024Z,99.90
2019-02-07T03:04:35.354Z,99.90
2019-02-07T03:07:41.582Z,99.90
2019-02-07T03:10:27.753Z,99.90
2019-02-07T03:13:14.611Z,99.90
2019-02-07T03:15:58.357Z,99.90
2019-02-07T03:18:52.872Z,99.90
2019-02-07T03:21:41.973Z,99.90
2019-02-07T03:24:29.350Z,99.90
2019-02-07T03:27:20.392Z,99.90
2019-02-07T03:30:11.662Z,99.90
2019-02-07T03:33:15.027Z,99.90
2019-02-07T03:36:03.301Z,99.90
2019-02-07T03:38:54.631Z,99.90
2019-02-07T03:41:48.739Z,99.90
2019-02-07T03:44:34.041Z,99.90
2019-02-07T03:47:16.155Z,99.90
2019-02-07T03:50:13.320Z,99.90
2019-02-07T03:53:00.429Z,99.90
2019-02-07T03:55:51.533Z,99.90
2019-02-07T03:58:38.384Z,99.90
2019-02-07T04:01:25.639Z,99.90
2019-02-07T04:04:19.749Z,99.90
2019-02-07T04:06:58.801Z,99.90
2019-02-07T04:09:46.396Z,99.90
2019-02-07T04:12:53.083Z,99.90
2019-02-07T04:15:39.701Z,99.90
2019-02-07T04:18:36.848Z,99.90
2019-02-07T04:21:19.858Z,99.90
2019-02-07T04:24:23.578Z,99.90
2019-02-07T04:27:11.815Z,99.90
2019-02-07T04:30:15.158Z,99.90
2019-02-07T04:33:02.355Z,99.90
2019-02-07T04:36:03.061Z,99.90
2019-02-07T04:39:06.359Z,99.90
2019-02-07T04:42:12.884Z,99.90
2019-02-07T04:45:05.241Z,99.90
2019-02-07T04:47:53.537Z,99.90
2019-02-07T04:50:31.668Z,99.90
2019-02-07T04:53:34.976Z,99.90
2019-02-07T04:56:22.170Z,99.90
2019-02-07T04:59:16.429Z,99.90
2019-02-07T05:01:57.424Z,99.90
2019-02-07T05:04:51.994Z,99.90
2019-02-07T05:07:43.668Z,99.90
2019-02-07T05:10:31.944Z,99.90
2019-02-07T05:13:29.303Z,99.90
2019-02-07T05:16:16.496Z,99.90
2019-02-07T05:19:03.835Z,99.90
2019-02-07T05:21:57.257Z,99.90
2019-02-07T05:24:45.501Z,99.90
2019-02-07T05:27:49.216Z,99.90
2019-02-07T05:30:52.496Z,99.90
2019-02-07T05:33:55.980Z,99.90
2019-02-07T05:36:43.127Z,99.90
2019-02-07T05:39:30.129Z,99.90
2019-02-07T05:42:17.305Z,99.90
2019-02-07T05:45:04.903Z,99.90
2019-02-07T05:47:45.177Z,99.90
2019-02-07T05:50:32.768Z,99.90
2019-02-07T05:53:19.618Z,99.90
2019-02-07T05:56:16.069Z,99.90
2019-02-07T05:58:54.251Z,99.90
2019-02-07T06:01:43.319Z,99.90
2019-02-07T06:04:29.935Z,99.90
2019-02-07T06:07:30.428Z,99.90
2019-02-07T06:10:17.248Z,99.90
2019-02-07T06:13:08.561Z,99.90
2019-02-07T06:15:53.938Z,99.90
2019-02-07T06:18:48.266Z,99.90
2019-02-07T06:21:27.329Z,99.90
2019-02-07T06:24:18.418Z,99.90
2019-02-07T06:27:25.149Z,99.90
2019-02-07T06:30:08.074Z,99.90
2019-02-07T06:32:54.728Z,99.90
2019-02-07T06:35:48.832Z,99.90
2019-02-07T06:38:42.945Z,99.90
2019-02-07T06:41:30.520Z,99.90
2019-02-07T06:44:21.596Z,99.90
2019-02-07T06:47:01.521Z,99.90
2019-02-07T06:49:48.212Z,99.90
2019-02-07T06:52:35.539Z,99.90
2019-02-07T06:55:23.531Z,99.90
2019-02-07T06:58:15.764Z,99.90
2019-02-07T07:01:16.399Z,99.90
2019-02-07T07:03:57.417Z,99.90
2019-02-07T07:06:44.695Z,99.90
2019-02-07T07:09:24.405Z,99.90
2019-02-07T07:12:15.880Z,99.90
2019-02-07T07:15:06.943Z,99.90
2019-02-07T07:17:58.040Z,99.90
2019-02-07T07:20:48.794Z,99.90
2019-02-07T07:23:46.145Z,99.90
2019-02-07T07:26:34.568Z,99.90
2019-02-07T07:29:20.741Z,99.90
2019-02-07T07:32:27.633Z,99.90
2019-02-07T07:35:34.702Z,99.90
2019-02-07T07:38:28.959Z,99.90
2019-02-07T07:41:20.172Z,99.90
2019-02-07T07:44:07.144Z,99.90
2019-02-07T07:46:56.319Z,99.90
2019-02-07T07:49:43.196Z,99.90
2019-02-07T07:52:46.668Z,99.90
2019-02-07T07:55:33.974Z,99.90
2019-02-07T07:58:28.393Z,99.90
2019-02-07T08:01:15.532Z,99.90
2019-02-07T08:03:51.293Z,99.90
2019-02-07T08:06:29.088Z,99.90
2019-02-07T08:09:17.371Z,99.90
2019-02-07T08:12:03.915Z,99.90
2019-02-07T08:14:53.897Z,99.90
2019-02-07T08:17:51.848Z,99.90
2019-02-07T08:20:45.992Z,99.90
2019-02-07T08:23:26.036Z,99.90
2019-02-07T08:26:17.048Z,99.90
2019-02-07T08:29:08.084Z,99.90
2019-02-07T08:32:11.379Z,99.90
2019-02-07T08:34:52.914Z,99.90
2019-02-07T08:37:40.144Z,99.90
2019-02-07T08:40:43.147Z,99.90
2019-02-07T08:43:43.677Z,99.90
2019-02-07T08:46:44.089Z,99.90
2019-02-07T08:49:33.332Z,99.90
2019-02-07T08:52:30.834Z,99.90
2019-02-07T08:55:22.094Z,99.90
2019-02-07T08:58:09.410Z,99.90
2019-02-07T09:00:47.510Z,99.90
2019-02-07T09:03:38.876Z,99.90
2019-02-07T09:06:30.041Z,99.90
2019-02-07T09:09:27.549Z,99.90
2019-02-07T09:12:13.082Z,99.90
2019-02-07T09:15:01.807Z,99.90
2019-02-07T09:17:49.096Z,99.90
2019-02-07T09:20:28.080Z,99.90
2019-02-07T09:23:18.401Z,99.90
2019-02-07T09:26:09.489Z,99.90
2019-02-07T09:28:57.380Z,99.90
2019-02-07T09:31:50.031Z,99.90
2019-02-07T09:34:30.855Z,99.90
2019-02-07T09:37:14.583Z,99.90
2019-02-07T09:39:58.501Z,99.90
2019-02-07T09:42:46.784Z,99.90
2019-02-07T09:45:39.098Z,99.90
2019-02-07T09:48:21.955Z,99.90
2019-02-07T09:51:10.356Z,99.90
2019-02-07T09:54:04.369Z,99.90
2019-02-07T09:56:43.303Z,99.90
2019-02-07T09:59:30.805Z,99.90
2019-02-07T10:02:17.913Z,99.90
2019-02-07T10:05:09.236Z,99.90
2019-02-07T10:08:03.433Z,99.90
2019-02-07T10:11:00.863Z,99.90
2019-02-07T10:13:52.030Z,99.90
2019-02-07T10:16:46.307Z,99.90
2019-02-07T10:19:43.665Z,99.90
2019-02-07T10:22:31.920Z,99.90
2019-02-07T10:25:27.567Z,99.90
2019-02-07T10:28:14.779Z,99.90
2019-02-07T10:31:09.318Z,99.90
2019-02-07T10:33:54.728Z,99.90
2019-02-07T10:36:34.775Z,99.90
2019-02-07T10:39:23.041Z,99.90
2019-02-07T10:42:06.401Z,99.90
2019-02-07T10:44:54.662Z,99.90
2019-02-07T10:47:58.073Z,99.90
2019-02-07T10:50:49.203Z,99.90
2019-02-07T10:53:40.307Z,99.90
2019-02-07T10:56:20.351Z,99.90
2019-02-07T10:59:07.021Z,99.90
2019-02-07T11:01:58.121Z,99.90
2019-02-07T11:04:52.182Z,99.90
2019-02-07T11:07:39.596Z,99.90
2019-02-07T11:10:36.632Z,99.90
2019-02-07T11:13:25.016Z,99.90
2019-02-07T11:16:11.861Z,99.90
2019-02-07T11:19:21.064Z,99.90
2019-02-07T11:22:02.652Z,99.90
2019-02-07T11:24:46.124Z,99.90
2019-02-07T11:27:37.871Z,99.90
2019-02-07T11:30:29.085Z,99.90
2019-02-07T11:33:20.281Z,99.90
2019-02-07T11:36:12.172Z,99.90
2019-02-07T11:38:59.499Z,99.90
2019-02-07T11:41:50.588Z,99.90
2019-02-07T11:44:43.600Z,99.90
2019-02-07T11:47:31.941Z,99.90
2019-02-07T11:50:26.182Z,99.90
2019-02-07T11:53:14.196Z,99.90
2019-02-07T11:55:52.972Z,99.90
2019-02-07T11:58:37.859Z,99.90
2019-02-07T12:01:22.759Z,99.90
2019-02-07T12:04:10.296Z,99.90
2019-02-07T12:07:04.272Z,99.90
2019-02-07T12:09:54.368Z,99.90
2019-02-07T12:12:51.728Z,99.90
2019-02-07T12:15:33.008Z,99.90
2019-02-07T12:18:27.393Z,99.90
2019-02-07T12:21:14.341Z,99.90
2019-02-07T12:24:21.220Z,99.90
2019-02-07T12:27:04.587Z,99.90
2019-02-07T12:29:52.873Z,99.90
2019-02-07T12:32:43.937Z,99.90
2019-02-07T12:35:33.393Z,99.90
2019-02-07T12:38:20.680Z,99.90
2019-02-07T12:41:07.900Z,99.90
2019-02-07T12:43:56.152Z,99.90
2019-02-07T12:46:44.456Z,99.90
2019-02-07T12:49:33.502Z,99.90
2019-02-07T12:52:31.006Z,99.90
2019-02-07T12:55:09.858Z,99.90
2019-02-07T12:57:51.791Z,99.90
2019-02-07T13:00:45.836Z,99.90
2019-02-07T13:03:30.684Z,99.90
2019-02-07T13:06:14.217Z,99.90
2019-02-07T13:08:50.315Z,99.90
2019-02-07T13:11:56.965Z,99.90
2019-02-07T13:14:51.994Z,99.90
2019-02-07T13:17:53.110Z,99.90
2019-02-07T13:20:59.849Z,99.90
2019-02-07T13:24:00.141Z,99.90
2019-02-07T13:26:36.441Z,99.90
2019-02-07T13:29:24.070Z,99.90
2019-02-07T13:32:07.498Z,99.90
2019-02-07T13:34:54.746Z,99.90
2019-02-07T13:37:36.264Z,99.90
2019-02-07T13:40:24.097Z,99.90
2019-02-07T13:43:31.231Z,99.90
2019-02-07T13:46:19.848Z,99.90
2019-02-07T13:49:24.002Z,99.90
2019-02-07T13:52:11.056Z,99.90
2019-02-07T13:55:02.419Z,99.90
2019-02-07T13:57:48.997Z,99.90
2019-02-07T14:00:41.089Z,99.90
2019-02-07T14:03:22.804Z,99.90
2019-02-07T14:06:11.121Z,99.90
2019-02-07T14:09:17.893Z,99.90
2019-02-07T14:11:59.305Z,99.90
2019-02-07T14:14:57.016Z,99.90
2019-02-07T14:17:44.229Z,99.90
2019-02-07T14:20:31.468Z,99.90
2019-02-07T14:23:29.869Z,98.90
2019-02-07T14:26:16.988Z,99.10
2019-02-07T14:29:17.740Z,98.30
2019-02-07T14:32:06.136Z,98.50
2019-02-07T14:34:54.596Z,99.30
2019-02-07T14:37:37.381Z,98.40
2019-02-07T14:40:27.291Z,99.80
2019-02-07T14:43:33.846Z,98.70
2019-02-07T14:46:24.982Z,99.10
2019-02-07T14:48:54.440Z,98.50
2019-02-07T14:51:23.915Z,98.80
2019-02-07T14:53:53.165Z,97.40
2019-02-07T14:56:22.450Z,97.60
2019-02-07T14:58:51.964Z,98.60
2019-02-07T15:01:21.356Z,97.60
2019-02-07T15:03:50.752Z,97.70
2019-02-07T15:06:20.288Z,98.80
2019-02-07T15:08:49.764Z,97.40
2019-02-07T15:11:19.256Z,97.40
2019-02-07T15:13:48.967Z,96.50
2019-02-07T15:16:18.357Z,95.20
2019-02-07T15:18:47.884Z,96.00
2019-02-07T15:21:17.059Z,96.00
2019-02-07T15:23:46.257Z,95.90
2019-02-07T15:26:15.833Z,94.80
2019-02-07T15:28:45.331Z,95.90
2019-02-07T15:31:14.881Z,95.60
2019-02-07T15:33:44.261Z,96.60
2019-02-07T15:36:13.588Z,96.40
2019-02-07T15:38:43.089Z,97.40
2019-02-07T15:41:12.416Z,97.40
2019-02-07T15:43:42.063Z,97.60
2019-02-07T15:46:11.952Z,98.60
2019-02-07T15:48:41.381Z,96.50
2019-02-07T15:51:10.748Z,97.80
2019-02-07T15:53:40.236Z,98.10
2019-02-07T15:56:09.448Z,97.70
2019-02-07T15:58:56.960Z,98.50
2019-02-07T16:01:30.753Z,99.00
2019-02-07T16:04:17.845Z,99.00
2019-02-07T16:06:47.183Z,98.70
2019-02-07T16:09:18.139Z,98.60
2019-02-07T16:11:47.681Z,99.20
2019-02-07T16:14:17.114Z,98.90
2019-02-07T16:16:46.861Z,98.70
2019-02-07T16:19:17.166Z,98.60
2019-02-07T16:21:46.784Z,99.60
2019-02-07T16:24:17.068Z,99.30
2019-02-07T16:26:46.438Z,99.20
2019-02-07T16:29:16.031Z,99.90
2019-02-07T16:31:45.620Z,99.80
2019-02-07T16:34:15.740Z,99.40
2019-02-07T16:36:45.520Z,99.90
2019-02-07T16:39:16.081Z,99.50
2019-02-07T16:41:45.293Z,99.90
2019-02-07T16:44:15.727Z,99.90
2019-02-07T16:46:45.104Z,99.90
2019-02-07T16:49:14.683Z,99.90
2019-02-07T16:51:44.264Z,99.90
2019-02-07T16:54:13.678Z,99.90
2019-02-07T16:56:42.873Z,99.90
2019-02-07T16:59:12.193Z,99.90
2019-02-07T17:01:41.388Z,99.90
2019-02-07T17:04:10.625Z,99.90
2019-02-07T17:06:39.810Z,99.90
2019-02-07T17:09:26.768Z,99.90
2019-02-07T17:11:56.001Z,99.90
2019-02-07T17:14:25.408Z,99.90
2019-02-07T17:16:54.627Z,99.90
2019-02-07T17:19:23.841Z,99.90
2019-02-07T17:21:53.144Z,99.90
2019-02-07T17:24:22.372Z,99.90
2019-02-07T17:26:51.564Z,99.90
2019-02-07T17:29:21.185Z,99.90
2019-02-07T17:31:50.396Z,99.90
2019-02-07T17:34:19.600Z,99.90
2019-02-07T17:36:49.645Z,99.90
2019-02-07T17:39:18.859Z,99.90
2019-02-07T17:41:48.073Z,99.90
2019-02-07T17:44:17.308Z,99.90
2019-02-07T17:46:46.475Z,99.90
2019-02-07T17:49:15.677Z,99.90
2019-02-07T17:51:44.876Z,99.90
2019-02-07T17:54:18.793Z,99.90
2019-02-07T17:56:45.032Z,99.90
2019-02-07T17:59:14.321Z,99.40
2019-02-07T18:01:43.688Z,99.60
2019-02-07T18:04:12.896Z,99.80
2019-02-07T18:06:42.101Z,99.40
2019-02-07T18:09:11.316Z,98.70
2019-02-07T18:11:40.517Z,99.50
2019-02-07T18:14:09.857Z,98.50
2019-02-07T18:16:38.984Z,99.40
2019-02-07T18:19:08.225Z,98.80
2019-02-07T18:21:37.668Z,99.30
2019-02-07T18:24:07.072Z,99.00
2019-02-07T18:26:36.293Z,98.60
2019-02-07T18:29:05.489Z,98.60
2019-02-07T18:31:35.053Z,98.40
2019-02-07T18:34:04.664Z,98.30
2019-02-07T18:36:33.856Z,98.40
2019-02-07T18:39:03.313Z,98.70
2019-02-07T18:41:32.537Z,99.90
2019-02-07T18:44:01.750Z,99.90
2019-02-07T18:46:31.156Z,99.90
2019-02-07T18:49:00.529Z,99.90
2019-02-07T18:51:29.737Z,99.90
2019-02-07T18:53:59.235Z,99.90
2019-02-07T18:56:28.445Z,99.90
2019-02-07T18:58:57.649Z,99.90
2019-02-07T19:01:27.282Z,99.90
2019-02-07T19:03:56.478Z,99.90
2019-02-07T19:06:25.687Z,99.90
2019-02-07T19:08:54.920Z,99.90
2019-02-07T19:11:24.180Z,99.90
2019-02-07T19:13:53.356Z,99.90
2019-02-07T19:16:22.605Z,99.90
2019-02-07T19:18:51.820Z,99.90
2019-02-07T19:21:21.096Z,99.90
2019-02-07T19:23:50.317Z,99.90
2019-02-07T19:26:19.524Z,99.90
2019-02-07T19:28:48.713Z,99.90
2019-02-07T19:31:18.024Z,99.90
2019-02-07T19:33:47.403Z,99.90
2019-02-07T19:36:16.600Z,99.90
2019-02-07T19:38:45.934Z,99.90
2019-02-07T19:41:15.123Z,99.90
2019-02-07T19:43:45.574Z,99.90
2019-02-07T19:46:15.003Z,99.90
2019-02-07T19:48:44.503Z,99.90
2019-02-07T19:51:13.831Z,99.90
2019-02-07T19:53:43.074Z,99.90
2019-02-07T19:56:12.264Z,99.90
2019-02-07T19:58:41.460Z,99.90
2019-02-07T20:01:10.676Z,99.90
2019-02-07T20:03:39.980Z,99.90
2019-02-07T20:06:09.244Z,99.90
2019-02-07T20:08:38.606Z,99.90
2019-02-07T20:11:07.804Z,99.90
2019-02-07T20:13:37.098Z,99.90
2019-02-07T20:16:06.404Z,99.90
2019-02-07T20:18:35.632Z,99.90
2019-02-07T20:21:05.020Z,99.90
2019-02-07T20:23:34.218Z,99.90
2019-02-07T20:26:03.467Z,99.90
2019-02-07T20:28:32.695Z,99.90
2019-02-07T20:31:01.888Z,99.90
2019-02-07T20:33:31.066Z,99.90
2019-02-07T20:36:00.284Z,99.90
2019-02-07T20:38:29.490Z,99.90
2019-02-07T20:40:58.717Z,99.90
2019-02-07T20:43:27.952Z,99.90
2019-02-07T20:45:57.147Z,99.90
2019-02-07T20:48:26.396Z,99.90
2019-02-07T20:50:55.585Z,99.90
2019-02-07T20:53:24.788Z,99.90
2019-02-07T20:55:54.021Z,99.90
2019-02-07T20:58:23.239Z,99.90
2019-02-07T21:00:52.427Z,99.90
2019-02-07T21:03:21.913Z,99.90
2019-02-07T21:05:51.861Z,99.90
2019-02-07T21:08:21.256Z,99.90
2019-02-07T21:10:51.200Z,99.90
2019-02-07T21:13:20.718Z,99.90
2019-02-07T21:15:50.205Z,99.90
2019-02-07T21:18:20.224Z,99.90
2019-02-07T21:20:49.845Z,99.90
2019-02-07T21:23:19.268Z,99.90
2019-02-07T21:25:50.866Z,99.90
2019-02-07T21:28:20.715Z,99.90
2019-02-07T21:30:50.568Z,99.90
2019-02-07T21:33:20.234Z,99.90
2019-02-07T21:35:49.962Z,99.90
2019-02-07T21:38:19.567Z,99.90
2019-02-07T21:40:49.210Z,99.90
2019-02-07T21:43:18.901Z,99.90
2019-02-07T21:45:48.697Z,99.90
2019-02-07T21:48:18.349Z,99.90
2019-02-07T21:50:47.895Z,99.90
2019-02-07T21:53:18.210Z,99.90
2019-02-07T21:55:48.108Z,99.90
2019-02-07T21:58:18.301Z,99.90
2019-02-07T22:00:47.932Z,99.90
2019-02-07T22:03:17.504Z,99.90
2019-02-07T22:05:46.780Z,99.90
2019-02-07T22:08:16.003Z,99.90
2019-02-07T22:10:45.317Z,99.90
2019-02-07T22:13:14.948Z,99.90
2019-02-07T22:15:44.180Z,99.90
2019-02-07T22:18:13.368Z,99.90
2019-02-07T22:20:42.561Z,99.90
2019-02-07T22:23:11.799Z,99.90
2019-02-07T22:25:40.987Z,99.90
2019-02-07T22:28:10.767Z,99.90
2019-02-07T22:30:40.009Z,99.90
2019-02-07T22:33:10.126Z,99.90
2019-02-07T22:35:39.292Z,99.90
2019-02-07T22:38:09.853Z,99.90
2019-02-07T22:40:39.148Z,99.90
2019-02-07T22:43:08.765Z,99.90
2019-02-07T22:45:37.992Z,99.90
2019-02-07T22:48:07.772Z,99.90
2019-02-07T22:50:36.977Z,99.90
2019-02-07T22:53:06.217Z,99.90
2019-02-07T22:55:35.407Z,99.90
2019-02-07T22:58:06.420Z,99.90
2019-02-07T23:01:26.204Z,99.90
2019-02-07T23:03:57.679Z,99.90
2019-02-07T23:06:26.896Z,99.90
2019-02-07T23:08:56.367Z,99.90
2019-02-07T23:11:25.573Z,99.90
2019-02-07T23:13:54.748Z,99.90
2019-02-07T23:16:24.175Z,99.90
2019-02-07T23:18:54.950Z,99.90
2019-02-07T23:21:24.175Z,99.90
2019-02-07T23:23:53.397Z,99.90
2019-02-07T23:26:22.592Z,99.90
2019-02-07T23:28:51.800Z,99.90
2019-02-07T23:31:21.029Z,99.90
2019-02-07T23:33:50.336Z,99.90
2019-02-07T23:36:19.511Z,99.90
2019-02-07T23:38:48.841Z,99.90
2019-02-07T23:41:18.044Z,99.90
2019-02-07T23:43:47.240Z,99.90
2019-02-07T23:46:16.491Z,99.90
2019-02-07T23:48:45.980Z,99.90
2019-02-07T23:51:15.179Z,99.90
2019-02-07T23:53:44.484Z,99.90
2019-02-07T23:56:13.681Z,99.90
2019-02-07T23:58:42.860Z,99.90
